METAR AND TAF INFORMATION

METAR FOR OTHH
ADDS - METARS form results

(0907 UTC 04 February 2023)
Data provider http://aviationweather.gov/metar/data/
 
METAR text: OTHH 040900Z AUTO 33009KT CAVOK 20/10 Q1018 NOSIG
Conditions at: OTHH (DOHA HAMAD INTL , QA) observed 0900 UTC 04 February 2023
Temperature: 20.0°C (68°F)
Dewpoint: 10.0°C (50°F) [RH = 53%]
Pressure (altimeter): 30.06 inches Hg (1018.0 mb)
Winds: from the NNW (330 degrees) at 10 MPH (9 knots; 4.6 m/s)
Visibility: 6 or more miles (10+ km)
Ceiling: ceiling and visibility are OK
Clouds: unknown
Weather: no significant weather observed at this time

Forecast for: OTHH (DOHA HAMAD INTL , QA)
Text: TAF OTHH 040514Z 0406/0512 32011KT 8000 NSC
Forecast period: 0600 UTC 04 February 2023 to 1200 UTC 05 February 2023
Forecast type: FROM: standard forecast or significant change
Winds: from the NW (320 degrees) at 13 MPH (11 knots; 5.7 m/s)
Visibility: 5 miles (8 km)
Ceiling: unknown
Clouds: missing
Weather: no significant weather forecast for this period
Text: TEMPO 0408/0414 02009KT
Forecast period: 0800 to 1400 UTC 04 February 2023
Forecast type: TEMPORARY: The following changes expected for less than half the time period
Winds: from the NNE (20 degrees) at 10 MPH (9 knots; 4.6 m/s)
Visibility: missing
Ceiling: unknown
Clouds: missing
Weather: no significant weather forecast for this period

 

AIRPORT MAP

 

RUNWAY INFORMATION


 

AIRPORT FREQUENCIES


 

AIRPORT NEAR NAVIGATION AIDS